Time;durP1;ratioP1;P1;durP2;ratioP2;P2;SDS_P1;SDS_P2;PMS_P1;PMS_P2;Temp;Humidity;BMP_temperature;BMP_pressure;BME280_temperature;BME280_humidity;BME280_pressure;Samples;Min_cycle;Max_cycle;Signal;HPM_P1;HPM_P2
2023/01/16 00:02:25;;;;;;;4.18;1.02;;;;;;;;;;4979443;28;20058;-78
2023/01/16 00:04:53;;;;;;;4.60;1.05;;;;;;;;;;4963785;28;20057;-78
2023/01/16 00:07:19;;;;;;;3.83;1.38;;;;;;;;;;4980048;28;20514;-78
2023/01/16 00:09:46;;;;;;;5.38;1.08;;;;;;;;;;4946774;28;20058;-78
2023/01/16 00:12:13;;;;;;;5.45;1.10;;;;;;;;;;4976610;28;20061;-78
2023/01/16 00:14:40;;;;;;;4.00;1.58;;;;;;;;;;4977850;28;20092;-79
2023/01/16 00:17:06;;;;;;;3.70;1.15;;;;;;;;;;4977932;28;20068;-78
2023/01/16 00:19:34;;;;;;;6.30;1.02;;;;;;;;;;4988456;28;20053;-79
2023/01/16 00:22:00;;;;;;;3.58;1.17;;;;;;;;;;4981556;28;20050;-79
2023/01/16 00:24:27;;;;;;;2.65;0.90;;;;;;;;;;4965719;28;20057;-79
2023/01/16 00:26:54;;;;;;;3.58;1.00;;;;;;;;;;4996940;28;20052;-80
2023/01/16 00:29:21;;;;;;;5.97;1.20;;;;;;;;;;4968661;28;20051;-79
2023/01/16 00:31:49;;;;;;;2.47;0.70;;;;;;;;;;4977910;28;20590;-79
2023/01/16 00:34:15;;;;;;;6.45;1.45;;;;;;;;;;4977592;28;20050;-79
2023/01/16 00:36:42;;;;;;;3.35;1.02;;;;;;;;;;4977417;28;20487;-79
2023/01/16 00:39:09;;;;;;;3.38;1.48;;;;;;;;;;4976915;28;20050;-79
2023/01/16 00:41:39;;;;;;;3.95;1.27;;;;;;;;;;4978033;28;20057;-79
2023/01/16 00:44:06;;;;;;;6.70;1.13;;;;;;;;;;5010008;28;20120;-79
2023/01/16 00:46:33;;;;;;;7.03;1.05;;;;;;;;;;4945114;28;20054;-78
2023/01/16 00:49:00;;;;;;;5.68;0.80;;;;;;;;;;4989587;28;20084;-78
2023/01/16 00:51:26;;;;;;;4.97;0.90;;;;;;;;;;4995877;28;20403;-79
2023/01/16 00:53:54;;;;;;;2.50;0.98;;;;;;;;;;4979958;28;20105;-79
2023/01/16 00:56:21;;;;;;;2.60;0.90;;;;;;;;;;4980065;28;20056;-79
2023/01/16 00:58:48;;;;;;;4.90;1.00;;;;;;;;;;4957374;28;20049;-78
2023/01/16 01:01:14;;;;;;;5.43;1.05;;;;;;;;;;4995362;28;20105;-78
2023/01/16 01:03:41;;;;;;;6.13;1.00;;;;;;;;;;4980836;28;20113;-80
2023/01/16 01:06:11;;;;;;;1.65;0.70;;;;;;;;;;4995866;28;20058;-79
2023/01/16 01:08:37;;;;;;;2.35;0.50;;;;;;;;;;4978630;28;20050;-79
2023/01/16 01:11:13;;;;;;;3.03;0.80;;;;;;;;;;4978897;28;20057;-79
2023/01/16 01:13:40;;;;;;;4.25;0.70;;;;;;;;;;4978873;28;20066;-79
2023/01/16 01:16:08;;;;;;;4.97;0.75;;;;;;;;;;4978191;28;20566;-79
2023/01/16 01:18:36;;;;;;;3.92;0.70;;;;;;;;;;4980795;28;20513;-80
2023/01/16 01:21:03;;;;;;;2.55;0.70;;;;;;;;;;4980995;28;20088;-79
2023/01/16 01:23:29;;;;;;;2.38;0.60;;;;;;;;;;4965612;28;20050;-79
2023/01/16 01:25:56;;;;;;;4.05;0.90;;;;;;;;;;4965147;28;20058;-79
2023/01/16 01:28:23;;;;;;;3.95;0.68;;;;;;;;;;4996259;28;20152;-80
2023/01/16 01:30:50;;;;;;;4.47;0.90;;;;;;;;;;4965963;28;20057;-80
2023/01/16 01:33:17;;;;;;;4.85;0.95;;;;;;;;;;4982047;28;20065;-80
2023/01/16 01:35:44;;;;;;;3.33;0.50;;;;;;;;;;4981775;28;20050;-79
2023/01/16 01:38:11;;;;;;;3.13;0.60;;;;;;;;;;4995899;28;20081;-79
2023/01/16 01:40:38;;;;;;;1.52;0.52;;;;;;;;;;4978114;28;20061;-79
2023/01/16 01:43:13;;;;;;;2.53;0.60;;;;;;;;;;4994506;28;20141;-79
2023/01/16 01:45:40;;;;;;;4.47;1.20;;;;;;;;;;4977985;28;20054;-79
2023/01/16 01:48:13;;;;;;;4.70;0.98;;;;;;;;;;4980098;28;20306;-79
2023/01/16 01:50:56;;;;;;;2.45;0.60;;;;;;;;;;4998862;28;20053;-78
2023/01/16 01:53:30;;;;;;;;;;;;;;;;;;4985599;28;20122;-78
2023/01/16 01:56:00;;;;;;;2.20;0.68;;;;;;;;;;5015527;28;19925;-78
2023/01/16 01:58:27;;;;;;;3.38;0.63;;;;;;;;;;4979874;28;20054;-78
2023/01/16 02:00:56;;;;;;;1.25;0.57;;;;;;;;;;4980343;28;20066;-78
2023/01/16 02:03:27;;;;;;;1.52;0.30;;;;;;;;;;4980430;28;20101;-79
2023/01/16 02:05:55;;;;;;;4.25;1.50;;;;;;;;;;4977407;28;20058;-77
2023/01/16 02:08:25;;;;;;;1.88;0.70;;;;;;;;;;4978036;28;20471;-77
2023/01/16 02:11:09;;;;;;;1.10;0.40;;;;;;;;;;4966825;28;20054;-79
2023/01/16 02:13:38;;;;;;;3.20;0.90;;;;;;;;;;5001068;28;20053;-79
2023/01/16 02:21:51;;;;;;;4.25;0.80;;;;;;;;;;5008451;28;20515;-78
2023/01/16 02:24:26;;;;;;;3.00;0.68;;;;;;;;;;5011337;28;20513;-78
2023/01/16 02:27:13;;;;;;;2.55;0.70;;;;;;;;;;4996498;28;20414;-78
2023/01/16 02:29:52;;;;;;;2.00;0.60;;;;;;;;;;4996488;28;20046;-79
2023/01/16 02:32:25;;;;;;;2.10;0.80;;;;;;;;;;5012431;28;20074;-78
2023/01/16 02:35:15;;;;;;;1.65;0.57;;;;;;;;;;4996314;28;20489;-79
2023/01/16 02:37:48;;;;;;;5.43;0.98;;;;;;;;;;4996497;28;20046;-78
2023/01/16 02:40:21;;;;;;;1.25;0.50;;;;;;;;;;4999383;28;20109;-77
2023/01/16 02:42:57;;;;;;;;;;;;;;;;;;4981906;28;20066;-77
2023/01/16 02:45:35;;;;;;;3.30;0.80;;;;;;;;;;5013553;28;19932;-77
2023/01/16 02:48:11;;;;;;;3.08;0.75;;;;;;;;;;5011166;28;20585;-78
2023/01/16 02:51:11;;;;;;;3.63;1.15;;;;;;;;;;5010386;28;20268;-77
2023/01/16 02:53:45;;;;;;;2.50;1.13;;;;;;;;;;4976911;28;20518;-78
2023/01/16 02:56:14;;;;;;;4.00;0.70;;;;;;;;;;4995764;28;20130;-79
2023/01/16 02:58:45;;;;;;;4.18;0.75;;;;;;;;;;4999187;28;20058;-80
2023/01/16 03:01:13;;;;;;;1.35;0.60;;;;;;;;;;4966088;28;20053;-79
2023/01/16 03:03:47;;;;;;;1.58;0.70;;;;;;;;;;4983884;28;20142;-79
2023/01/16 03:06:23;;;;;;;3.88;0.70;;;;;;;;;;4983543;28;20057;-79
2023/01/16 03:09:03;;;;;;;1.70;0.55;;;;;;;;;;4988800;28;20050;-79
2023/01/16 03:11:31;;;;;;;1.60;0.55;;;;;;;;;;4995736;28;20050;-79
2023/01/16 03:14:13;;;;;;;1.95;0.70;;;;;;;;;;4980182;28;20061;-78
2023/01/16 03:17:07;;;;;;;3.63;0.85;;;;;;;;;;4995974;28;20050;-79
2023/01/16 03:20:21;;;;;;;1.38;0.47;;;;;;;;;;4992242;28;20050;-79
2023/01/16 03:22:53;;;;;;;1.27;0.70;;;;;;;;;;4975802;28;20061;-79
2023/01/16 03:25:51;;;;;;;1.98;0.75;;;;;;;;;;4995721;28;20057;-78
2023/01/16 03:28:27;;;;;;;1.15;0.60;;;;;;;;;;4980459;28;20050;-79
2023/01/16 03:31:00;;;;;;;1.88;0.60;;;;;;;;;;4998488;28;20109;-79
2023/01/16 03:33:45;;;;;;;2.25;0.70;;;;;;;;;;4966972;28;20042;-79
2023/01/16 03:36:20;;;;;;;2.75;0.80;;;;;;;;;;4982787;28;20046;-79
2023/01/16 03:38:47;;;;;;;2.38;0.52;;;;;;;;;;4958876;28;20514;-78
2023/01/16 03:41:15;;;;;;;4.05;1.33;;;;;;;;;;4979022;28;20058;-79
2023/01/16 03:43:42;;;;;;;2.47;0.77;;;;;;;;;;4978920;28;20420;-79
2023/01/16 03:46:29;;;;;;;1.38;0.70;;;;;;;;;;4978890;28;20057;-79
2023/01/16 03:49:14;;;;;;;2.13;0.68;;;;;;;;;;4981813;28;20065;-79
2023/01/16 03:51:47;;;;;;;6.63;0.73;;;;;;;;;;4983887;28;20057;-79
2023/01/16 03:54:20;;;;;;;2.70;0.90;;;;;;;;;;4982257;28;20064;-79
2023/01/16 03:56:59;;;;;;;2.47;1.35;;;;;;;;;;4999275;28;20049;-79
2023/01/16 03:59:26;;;;;;;3.40;0.60;;;;;;;;;;4970012;28;20108;-79
2023/01/16 04:02:03;;;;;;;1.80;0.50;;;;;;;;;;4979644;28;20058;-78
2023/01/16 04:04:42;;;;;;;4.03;0.80;;;;;;;;;;4978563;28;20054;-78
2023/01/16 04:07:21;;;;;;;1.05;0.60;;;;;;;;;;4981776;28;20046;-79
2023/01/16 04:09:53;;;;;;;2.88;1.30;;;;;;;;;;5011982;28;20046;-79
2023/01/16 04:12:22;;;;;;;1.73;0.75;;;;;;;;;;4997958;28;20049;-79
2023/01/16 04:15:01;;;;;;;3.55;0.70;;;;;;;;;;4997310;28;20049;-79
2023/01/16 04:17:29;;;;;;;5.07;0.75;;;;;;;;;;4996877;28;20053;-79
2023/01/16 04:19:56;;;;;;;2.38;0.57;;;;;;;;;;4983703;28;20056;-79
2023/01/16 04:22:26;;;;;;;1.50;0.63;;;;;;;;;;4968417;28;20053;-78
2023/01/16 04:24:54;;;;;;;4.50;0.90;;;;;;;;;;4998302;28;20445;-78
2023/01/16 04:27:21;;;;;;;2.75;0.73;;;;;;;;;;4981954;28;20080;-78
2023/01/16 04:29:47;;;;;;;3.03;0.70;;;;;;;;;;4966842;28;20054;-78
2023/01/16 04:32:14;;;;;;;5.43;0.68;;;;;;;;;;4976805;28;20072;-78
2023/01/16 04:34:41;;;;;;;0.95;0.47;;;;;;;;;;4976203;28;20062;-78
2023/01/16 04:37:11;;;;;;;2.40;0.57;;;;;;;;;;4975753;28;20054;-78
2023/01/16 04:39:40;;;;;;;3.63;0.50;;;;;;;;;;4978787;28;20116;-78
2023/01/16 04:42:08;;;;;;;4.75;0.73;;;;;;;;;;4995789;28;20116;-78
2023/01/16 04:44:35;;;;;;;2.83;0.57;;;;;;;;;;4980490;28;20046;-78
2023/01/16 04:47:02;;;;;;;4.53;0.70;;;;;;;;;;4979323;28;20446;-78
2023/01/16 04:49:29;;;;;;;3.92;0.70;;;;;;;;;;4984154;28;20391;-78
2023/01/16 04:51:56;;;;;;;2.40;0.50;;;;;;;;;;4976051;28;20403;-78
2023/01/16 04:54:23;;;;;;;2.40;0.60;;;;;;;;;;4960511;28;20050;-78
2023/01/16 04:56:50;;;;;;;1.15;0.50;;;;;;;;;;4975814;28;20050;-78
2023/01/16 04:59:18;;;;;;;2.65;0.73;;;;;;;;;;4983714;28;20460;-78
2023/01/16 05:01:44;;;;;;;3.60;0.75;;;;;;;;;;5014706;28;20079;-78
2023/01/16 05:04:12;;;;;;;3.58;0.70;;;;;;;;;;5014414;28;20107;-78
2023/01/16 05:06:39;;;;;;;6.40;0.52;;;;;;;;;;5014867;28;20049;-78
2023/01/16 05:09:06;;;;;;;2.85;0.75;;;;;;;;;;4988933;28;20069;-78
2023/01/16 05:11:33;;;;;;;2.03;0.70;;;;;;;;;;4961817;28;20061;-77
2023/01/16 05:14:00;;;;;;;3.88;0.73;;;;;;;;;;4975595;28;20050;-78
2023/01/16 05:16:27;;;;;;;2.08;0.60;;;;;;;;;;4976105;28;20057;-78
2023/01/16 05:18:54;;;;;;;1.27;0.70;;;;;;;;;;4963358;28;20042;-78
2023/01/16 05:21:21;;;;;;;3.22;0.80;;;;;;;;;;4978835;28;20534;-78
2023/01/16 05:23:48;;;;;;;3.95;1.00;;;;;;;;;;4980712;28;20524;-80
2023/01/16 05:26:15;;;;;;;3.15;0.80;;;;;;;;;;4981241;28;20141;-80
2023/01/16 05:28:42;;;;;;;4.10;0.80;;;;;;;;;;4982149;28;20053;-79
2023/01/16 05:31:09;;;;;;;1.20;0.70;;;;;;;;;;4995491;28;20057;-78
2023/01/16 05:33:36;;;;;;;2.50;1.38;;;;;;;;;;4996333;28;20137;-80
2023/01/16 05:36:03;;;;;;;1.70;0.70;;;;;;;;;;4980983;28;20145;-79
2023/01/16 05:38:30;;;;;;;1.25;0.60;;;;;;;;;;5002091;28;20064;-78
2023/01/16 05:40:57;;;;;;;2.78;0.85;;;;;;;;;;4970620;28;20057;-79
2023/01/16 05:43:24;;;;;;;2.53;0.90;;;;;;;;;;4984028;28;20054;-78
2023/01/16 05:45:50;;;;;;;4.50;1.10;;;;;;;;;;4970707;28;20073;-80
2023/01/16 05:48:17;;;;;;;4.25;0.70;;;;;;;;;;4968585;28;20042;-79
2023/01/16 05:50:44;;;;;;;3.15;1.17;;;;;;;;;;4963006;28;20438;-78
2023/01/16 05:53:11;;;;;;;1.45;0.70;;;;;;;;;;4991269;28;20055;-78
2023/01/16 05:55:45;;;;;;;3.40;0.80;;;;;;;;;;4970495;28;20419;-78
2023/01/16 05:58:15;;;;;;;3.17;0.80;;;;;;;;;;5017918;28;20486;-79
2023/01/16 06:00:42;;;;;;;1.40;0.80;;;;;;;;;;4972542;28;20061;-78
2023/01/16 06:03:09;;;;;;;1.08;0.80;;;;;;;;;;4978750;28;20050;-79
2023/01/16 06:05:36;;;;;;;4.40;0.80;;;;;;;;;;4982921;28;20053;-78
2023/01/16 06:08:04;;;;;;;2.55;0.80;;;;;;;;;;4983382;28;20502;-79
2023/01/16 06:10:31;;;;;;;2.22;0.95;;;;;;;;;;4983225;28;20529;-82
2023/01/16 06:13:00;;;;;;;3.05;0.90;;;;;;;;;;4984073;28;20121;-83
2023/01/16 06:15:27;;;;;;;5.55;1.00;;;;;;;;;;4983499;28;20459;-81
2023/01/16 06:17:55;;;;;;;3.75;0.88;;;;;;;;;;4983172;28;20236;-80
2023/01/16 06:20:21;;;;;;;2.83;1.88;;;;;;;;;;4999073;28;20333;-77
2023/01/16 06:22:48;;;;;;;5.53;2.42;;;;;;;;;;4983419;28;20061;-79
2023/01/16 06:25:15;;;;;;;5.78;2.83;;;;;;;;;;4983734;28;20054;-79
2023/01/16 06:27:42;;;;;;;5.03;2.33;;;;;;;;;;4998444;28;20049;-80
2023/01/16 06:30:09;;;;;;;4.93;1.65;;;;;;;;;;4983712;28;20054;-81
2023/01/16 06:32:36;;;;;;;5.53;1.13;;;;;;;;;;4982741;28;20049;-81
2023/01/16 06:35:03;;;;;;;1.65;0.75;;;;;;;;;;4984699;28;20077;-79
2023/01/16 06:37:30;;;;;;;3.53;1.55;;;;;;;;;;4970886;28;20078;-81
2023/01/16 06:39:59;;;;;;;3.40;2.00;;;;;;;;;;4987898;28;20054;-81
2023/01/16 06:42:26;;;;;;;2.85;1.48;;;;;;;;;;5004709;28;20052;-81
2023/01/16 06:44:53;;;;;;;3.05;1.08;;;;;;;;;;5002220;28;20065;-78
2023/01/16 06:47:20;;;;;;;2.22;0.73;;;;;;;;;;4996063;28;20080;-78
2023/01/16 06:49:47;;;;;;;1.27;0.77;;;;;;;;;;4979336;28;20058;-78
2023/01/16 06:52:13;;;;;;;4.28;1.42;;;;;;;;;;4954834;28;20065;-79
2023/01/16 06:54:40;;;;;;;3.53;1.00;;;;;;;;;;4994614;28;20053;-78
2023/01/16 06:57:07;;;;;;;4.57;1.20;;;;;;;;;;4987850;28;20511;-76
2023/01/16 06:59:34;;;;;;;2.05;1.40;;;;;;;;;;4961139;28;20051;-79
2023/01/16 07:02:00;;;;;;;5.28;2.72;;;;;;;;;;4976695;28;20054;-80
2023/01/16 07:04:27;;;;;;;6.97;2.25;;;;;;;;;;4980295;28;20470;-80
2023/01/16 07:06:54;;;;;;;3.92;1.42;;;;;;;;;;4980136;28;20065;-79
2023/01/16 07:09:30;;;;;;;2.45;1.17;;;;;;;;;;5000038;28;20484;-79
2023/01/16 07:11:56;;;;;;;2.75;1.25;;;;;;;;;;4971928;28;20114;-80
2023/01/16 07:22:44;;;;;;;3.17;1.42;;;;;;;;;;4998658;28;20132;-78
2023/01/16 07:25:20;;;;;;;3.55;1.30;;;;;;;;;;4964249;28;20560;-79
2023/01/16 07:27:48;;;;;;;5.35;1.60;;;;;;;;;;4979197;28;20502;-80
2023/01/16 07:30:19;;;;;;;4.85;1.80;;;;;;;;;;4964989;28;20115;-80
2023/01/16 07:32:46;;;;;;;6.15;2.40;;;;;;;;;;4964539;28;20058;-79
2023/01/16 07:35:13;;;;;;;5.55;2.47;;;;;;;;;;4967549;28;20050;-79
2023/01/16 07:37:39;;;;;;;3.63;2.03;;;;;;;;;;4982648;28;20434;-77
2023/01/16 07:40:08;;;;;;;6.65;3.10;;;;;;;;;;4969382;28;20133;-79
2023/01/16 07:42:35;;;;;;;6.00;2.78;;;;;;;;;;4984512;28;20058;-79
2023/01/16 07:45:02;;;;;;;7.82;3.10;;;;;;;;;;4984828;28;20425;-79
2023/01/16 07:47:29;;;;;;;6.32;2.90;;;;;;;;;;4984946;28;20077;-81
2023/01/16 07:49:58;;;;;;;3.97;2.80;;;;;;;;;;4985406;28;20057;-80
2023/01/16 07:52:25;;;;;;;4.28;2.30;;;;;;;;;;4971036;28;20096;-80
2023/01/16 07:54:52;;;;;;;4.60;1.77;;;;;;;;;;4965605;28;20549;-79
2023/01/16 07:57:18;;;;;;;2.30;1.50;;;;;;;;;;4996845;28;20064;-80
2023/01/16 07:59:45;;;;;;;1.45;0.90;;;;;;;;;;4980396;28;20068;-79
2023/01/16 08:02:13;;;;;;;0.40;0.40;;;;;;;;;;4962635;28;20065;-80
2023/01/16 08:04:40;;;;;;;1.00;0.60;;;;;;;;;;4976527;28;20507;-79
2023/01/16 08:07:07;;;;;;;1.27;0.50;;;;;;;;;;4977940;28;20073;-79
2023/01/16 08:09:34;;;;;;;2.28;0.70;;;;;;;;;;4975693;28;20067;-78
2023/01/16 08:12:03;;;;;;;1.70;0.70;;;;;;;;;;4979593;28;20053;-79
2023/01/16 08:14:30;;;;;;;1.10;0.70;;;;;;;;;;4977411;28;20060;-78
2023/01/16 08:16:57;;;;;;;1.63;0.90;;;;;;;;;;4979869;28;20080;-78
2023/01/16 08:19:24;;;;;;;3.83;0.90;;;;;;;;;;4963320;28;20054;-77
2023/01/16 08:21:51;;;;;;;2.40;0.75;;;;;;;;;;4981518;28;20058;-80
2023/01/16 08:24:18;;;;;;;2.88;0.85;;;;;;;;;;4993137;28;20464;-80
2023/01/16 08:26:45;;;;;;;1.50;0.60;;;;;;;;;;4969091;28;20057;-78
2023/01/16 08:29:13;;;;;;;3.85;0.80;;;;;;;;;;4948854;28;20073;-79
2023/01/16 08:31:40;;;;;;;1.35;0.60;;;;;;;;;;4992766;28;20255;-79
2023/01/16 08:34:07;;;;;;;2.78;0.88;;;;;;;;;;4976285;28;20109;-79
2023/01/16 08:36:33;;;;;;;1.98;0.57;;;;;;;;;;4974749;28;20058;-77
2023/01/16 08:39:00;;;;;;;3.30;0.60;;;;;;;;;;4974253;28;20051;-76
2023/01/16 08:52:36;;;;;;;1.40;0.32;;;;;;;;;;4976040;28;20054;-76
2023/01/16 08:55:04;;;;;;;2.15;0.50;;;;;;;;;;4965661;28;20575;-74
2023/01/16 08:57:31;;;;;;;0.35;0.30;;;;;;;;;;5007792;28;20473;-74
2023/01/16 08:59:58;;;;;;;3.25;0.40;;;;;;;;;;4969810;28;20076;-77
2023/01/16 09:02:26;;;;;;;1.08;0.52;;;;;;;;;;4991679;28;20050;-78
2023/01/16 09:04:54;;;;;;;4.20;1.10;;;;;;;;;;4960108;28;20068;-78
2023/01/16 09:07:21;;;;;;;3.67;1.25;;;;;;;;;;4975717;28;20050;-77
2023/01/16 09:09:50;;;;;;;2.03;1.33;;;;;;;;;;4974758;28;20053;-77
2023/01/16 09:15:03;;;;;;;3.05;0.50;;;;;;;;;;4988072;28;20442;-79
2023/01/16 09:17:34;;;;;;;1.52;0.52;;;;;;;;;;4978266;28;20053;-79
2023/01/16 09:20:01;;;;;;;1.17;0.47;;;;;;;;;;4963655;28;20056;-79
2023/01/16 09:22:27;;;;;;;1.10;0.60;;;;;;;;;;4964171;28;20053;-76
2023/01/16 09:24:54;;;;;;;1.25;0.40;;;;;;;;;;4960389;28;20056;-79
2023/01/16 09:27:24;;;;;;;1.55;0.50;;;;;;;;;;4978446;28;20073;-80
2023/01/16 09:29:51;;;;;;;1.30;0.50;;;;;;;;;;4965799;28;20081;-81
2023/01/16 09:32:18;;;;;;;1.13;0.70;;;;;;;;;;4968263;28;20100;-81
2023/01/16 09:34:45;;;;;;;0.63;0.57;;;;;;;;;;4984263;28;20080;-81
2023/01/16 09:37:12;;;;;;;1.45;0.98;;;;;;;;;;4969080;28;20050;-81
2023/01/16 09:39:39;;;;;;;1.70;0.60;;;;;;;;;;4966008;28;20149;-81
2023/01/16 09:45:24;;;;;;;1.20;0.57;;;;;;;;;;4978825;28;20054;-81
2023/01/16 09:47:53;;;;;;;2.13;0.88;;;;;;;;;;4981165;28;20506;-81
2023/01/16 09:50:49;;;;;;;1.67;0.50;;;;;;;;;;4965258;28;20080;-81
2023/01/16 09:59:02;;;;;;;0.70;0.40;;;;;;;;;;4986431;28;20042;-81
2023/01/16 10:01:35;;;;;;;5.00;1.13;;;;;;;;;;4968260;28;20052;-83
2023/01/16 10:04:32;;;;;;;1.80;0.47;;;;;;;;;;4965881;28;20135;-82
2023/01/16 10:07:33;;;;;;;1.45;0.50;;;;;;;;;;4988879;28;20049;-80
2023/01/16 10:10:43;;;;;;;0.90;0.52;;;;;;;;;;4988911;28;20050;-79
2023/01/16 10:13:31;;;;;;;2.78;0.50;;;;;;;;;;5025723;28;20065;-78
2023/01/16 10:16:23;;;;;;;0.93;0.30;;;;;;;;;;4998900;28;20084;-78
2023/01/16 10:19:19;;;;;;;0.35;0.32;;;;;;;;;;5007010;28;20421;-78
2023/01/16 10:22:06;;;;;;;1.10;0.40;;;;;;;;;;5014680;28;20104;-79
2023/01/16 10:25:00;;;;;;;1.00;0.65;;;;;;;;;;5019427;28;20056;-79
2023/01/16 10:27:34;;;;;;;3.97;1.83;;;;;;;;;;5021366;28;20073;-78
2023/01/16 10:30:19;;;;;;;6.45;2.40;;;;;;;;;;4981322;28;20057;-78
2023/01/16 10:33:01;;;;;;;0.90;0.55;;;;;;;;;;4962723;28;20049;-79
2023/01/16 10:35:38;;;;;;;1.20;0.70;;;;;;;;;;4969065;28;20743;-79
2023/01/16 10:38:27;;;;;;;0.85;0.50;;;;;;;;;;4987906;28;20648;-78
2023/01/16 10:40:54;;;;;;;1.23;0.90;;;;;;;;;;4951217;28;20055;-79
2023/01/16 10:49:27;;;;;;;0.80;0.20;;;;;;;;;;4979398;28;20042;-80
2023/01/16 10:51:58;;;;;;;0.10;0.10;;;;;;;;;;4976996;28;20473;-78
2023/01/16 10:54:26;;;;;;;1.00;0.40;;;;;;;;;;4977325;28;20138;-81
2023/01/16 10:56:53;;;;;;;0.30;0.30;;;;;;;;;;4979802;28;20047;-81
2023/01/16 10:59:23;;;;;;;1.35;0.20;;;;;;;;;;4967056;28;20547;-81
2023/01/16 11:01:51;;;;;;;0.40;0.30;;;;;;;;;;4963203;28;20042;-81
2023/01/16 11:04:20;;;;;;;0.70;0.50;;;;;;;;;;4964304;28;20133;-81
2023/01/16 11:06:47;;;;;;;0.40;0.30;;;;;;;;;;4979434;28;20503;-81
2023/01/16 11:09:15;;;;;;;0.35;0.22;;;;;;;;;;4971783;28;20442;-81
2023/01/16 11:20:34;;;;;;;1.30;0.50;;;;;;;;;;4992966;28;20125;-80
2023/01/16 11:23:05;;;;;;;;;;;;;;;;;;4974186;28;20144;-79
2023/01/16 11:25:33;;;;;;;1.38;0.70;;;;;;;;;;4972795;28;19928;-79
2023/01/16 11:28:02;;;;;;;0.77;0.50;;;;;;;;;;4993710;28;20137;-81
2023/01/16 11:30:37;;;;;;;1.17;1.02;;;;;;;;;;4977390;28;20050;-84
2023/01/16 11:33:08;;;;;;;0.50;0.50;;;;;;;;;;4974000;28;20058;-81
2023/01/16 11:35:36;;;;;;;0.82;0.47;;;;;;;;;;4975096;28;20113;-80
2023/01/16 11:38:04;;;;;;;0.82;0.70;;;;;;;;;;4991734;28;20050;-81
2023/01/16 11:40:44;;;;;;;0.65;0.50;;;;;;;;;;4969098;28;20518;-80
2023/01/16 11:46:27;;;;;;;0.40;0.30;;;;;;;;;;4978410;28;20054;-82
2023/01/16 11:49:14;;;;;;;1.77;0.20;;;;;;;;;;4981808;28;20073;-82
2023/01/16 11:51:41;;;;;;;1.08;0.30;;;;;;;;;;4969356;28;20046;-81
2023/01/16 11:54:25;;;;;;;1.38;0.50;;;;;;;;;;4971410;28;20418;-78
2023/01/16 11:57:22;;;;;;;0.73;0.28;;;;;;;;;;4978219;28;20056;-79
2023/01/16 12:00:14;;;;;;;1.05;0.90;;;;;;;;;;4986505;28;20049;-79
2023/01/16 12:03:22;;;;;;;1.95;1.63;;;;;;;;;;4974357;28;20046;-82
2023/01/16 12:06:02;;;;;;;3.03;1.20;;;;;;;;;;4933562;29;20520;-82
2023/01/16 12:09:20;;;;;;;0.82;0.57;;;;;;;;;;4984942;28;20050;-79
2023/01/16 12:15:20;;;;;;;0.50;0.50;;;;;;;;;;4941682;29;20059;-80
2023/01/16 12:18:20;;;;;;;0.60;0.32;;;;;;;;;;4976554;28;20046;-79
2023/01/16 12:20:52;;;;;;;2.03;0.63;;;;;;;;;;4969799;28;20043;-79
2023/01/16 12:23:38;;;;;;;0.95;0.40;;;;;;;;;;4990538;28;20477;-79
2023/01/16 12:26:23;;;;;;;0.68;0.60;;;;;;;;;;4985594;28;20077;-79
2023/01/16 12:28:57;;;;;;;0.82;0.70;;;;;;;;;;4964378;28;20043;-80
2023/01/16 12:31:48;;;;;;;0.47;0.32;;;;;;;;;;4970961;28;20105;-79
2023/01/16 12:34:37;;;;;;;1.00;0.80;;;;;;;;;;4987650;28;20054;-80
2023/01/16 12:37:17;;;;;;;2.95;1.73;;;;;;;;;;4967889;28;20078;-80
2023/01/16 12:39:56;;;;;;;0.88;0.50;;;;;;;;;;4990363;28;20046;-80
2023/01/16 12:45:55;;;;;;;1.00;0.60;;;;;;;;;;4992876;28;20054;-80
2023/01/16 12:48:55;;;;;;;1.60;0.82;;;;;;;;;;4969896;28;20061;-80
2023/01/16 12:51:43;;;;;;;1.50;0.82;;;;;;;;;;4967595;28;20050;-80
2023/01/16 12:54:35;;;;;;;3.17;1.63;;;;;;;;;;4991713;28;20137;-80
2023/01/16 12:57:08;;;;;;;0.98;0.70;;;;;;;;;;4967163;28;20534;-80
2023/01/16 12:59:48;;;;;;;1.40;0.80;;;;;;;;;;4991838;28;20082;-80
2023/01/16 13:02:23;;;;;;;0.68;0.60;;;;;;;;;;4978872;28;20489;-80
2023/01/16 13:05:00;;;;;;;2.17;0.70;;;;;;;;;;4973411;28;20050;-80
2023/01/16 13:07:31;;;;;;;0.73;0.60;;;;;;;;;;4969627;28;20120;-80
2023/01/16 13:15:44;;;;;;;2.58;1.52;;;;;;;;;;4977564;28;20118;-80
2023/01/16 13:18:17;;;;;;;2.92;1.70;;;;;;;;;;4962411;28;20061;-80
2023/01/16 13:20:47;;;;;;;1.25;0.60;;;;;;;;;;4972034;28;20537;-80
2023/01/16 13:23:17;;;;;;;3.65;0.75;;;;;;;;;;4977445;28;20522;-80
2023/01/16 13:25:46;;;;;;;1.48;0.80;;;;;;;;;;4974126;28;20056;-80
2023/01/16 13:28:29;;;;;;;1.02;0.50;;;;;;;;;;4962233;28;20046;-80
2023/01/16 13:30:57;;;;;;;;;;;;;;;;;;4983425;28;20126;-80
2023/01/16 13:33:28;;;;;;;1.90;1.17;;;;;;;;;;4977728;28;20016;-80
2023/01/16 13:36:39;;;;;;;2.05;1.15;;;;;;;;;;4976906;28;20082;-80
2023/01/16 13:39:41;;;;;;;0.65;0.45;;;;;;;;;;4974083;28;20050;-79
2023/01/16 13:42:09;;;;;;;0.30;0.30;;;;;;;;;;4993058;28;20061;-79
2023/01/16 13:47:29;;;;;;;0.30;0.30;;;;;;;;;;5011853;28;20065;-79
2023/01/16 13:50:24;;;;;;;1.65;0.30;;;;;;;;;;4981053;28;20046;-79
2023/01/16 13:52:54;;;;;;;1.02;0.47;;;;;;;;;;4998355;28;20030;-79
2023/01/16 13:55:33;;;;;;;1.17;0.50;;;;;;;;;;4984500;28;20495;-79
2023/01/16 13:58:29;;;;;;;2.08;0.32;;;;;;;;;;4983284;28;20073;-79
2023/01/16 14:00:57;;;;;;;1.23;0.40;;;;;;;;;;4958270;28;20049;-79
2023/01/16 14:03:26;;;;;;;0.22;0.22;;;;;;;;;;4982696;28;20506;-79
2023/01/16 14:06:12;;;;;;;0.60;0.30;;;;;;;;;;4983082;28;20040;-80
2023/01/16 14:09:04;;;;;;;1.35;0.50;;;;;;;;;;4993776;28;20085;-80
2023/01/16 14:11:38;;;;;;;1.42;0.50;;;;;;;;;;4973864;28;20054;-79
2023/01/16 14:17:30;;;;;;;0.43;0.35;;;;;;;;;;4989700;28;20100;-79
2023/01/16 14:20:01;;;;;;;1.13;0.30;;;;;;;;;;4980031;28;20046;-80
2023/01/16 14:25:18;;;;;;;1.45;0.60;;;;;;;;;;4995551;28;20061;-80
2023/01/16 14:27:49;;;;;;;1.45;0.40;;;;;;;;;;4978542;28;20050;-80
2023/01/16 14:30:18;;;;;;;0.30;0.30;;;;;;;;;;4977487;28;20051;-79
2023/01/16 14:32:51;;;;;;;1.60;0.40;;;;;;;;;;4978906;28;20108;-79
2023/01/16 14:35:21;;;;;;;2.75;0.43;;;;;;;;;;4949813;28;20052;-80
2023/01/16 14:38:02;;;;;;;1.48;0.77;;;;;;;;;;4947470;28;20061;-78
2023/01/16 14:55:41;;;;;;;0.88;0.40;;;;;;;;;;4976010;28;20058;-78
2023/01/16 14:58:10;;;;;;;0.90;0.43;;;;;;;;;;4994553;28;20057;-78
2023/01/16 15:00:38;;;;;;;0.85;0.30;;;;;;;;;;4962803;28;20042;-78
2023/01/16 15:03:14;;;;;;;2.05;0.95;;;;;;;;;;4943374;28;20069;-79
2023/01/16 15:05:55;;;;;;;2.15;0.60;;;;;;;;;;4961682;28;20054;-79
2023/01/16 15:08:35;;;;;;;0.52;0.40;;;;;;;;;;4963434;28;20069;-79
2023/01/16 15:11:33;;;;;;;0.75;0.30;;;;;;;;;;4961632;28;20050;-79
2023/01/16 15:14:30;;;;;;;0.30;0.30;;;;;;;;;;4980243;28;20085;-78
2023/01/16 15:22:58;;;;;;;1.23;0.60;;;;;;;;;;4997505;28;20069;-79
2023/01/16 15:25:39;;;;;;;1.70;0.77;;;;;;;;;;4996098;28;20069;-79
2023/01/16 15:28:09;;;;;;;0.50;0.30;;;;;;;;;;4995674;28;20111;-79
2023/01/16 15:30:36;;;;;;;0.70;0.50;;;;;;;;;;4995857;28;20073;-79
2023/01/16 15:36:02;;;;;;;1.60;0.77;;;;;;;;;;4957202;28;20141;-79
2023/01/16 15:38:35;;;;;;;1.45;0.60;;;;;;;;;;4977487;28;20057;-80
2023/01/16 15:41:03;;;;;;;1.25;0.70;;;;;;;;;;4976244;28;20513;-79
2023/01/16 15:46:33;;;;;;;2.17;0.80;;;;;;;;;;4996758;28;20050;-79
2023/01/16 15:49:16;;;;;;;1.63;0.70;;;;;;;;;;4968062;28;20077;-79
2023/01/16 15:51:56;;;;;;;1.38;0.68;;;;;;;;;;4993788;28;20061;-77
2023/01/16 15:54:23;;;;;;;3.03;0.98;;;;;;;;;;4978521;28;20434;-81
2023/01/16 15:56:50;;;;;;;1.13;0.60;;;;;;;;;;4980450;28;20215;-78
2023/01/16 15:59:27;;;;;;;1.63;0.60;;;;;;;;;;4985697;28;20074;-81
2023/01/16 16:02:08;;;;;;;1.00;0.52;;;;;;;;;;4988916;28;20054;-80
2023/01/16 16:04:35;;;;;;;2.40;1.10;;;;;;;;;;4988659;28;20046;-80
2023/01/16 16:07:02;;;;;;;0.55;0.38;;;;;;;;;;4974897;28;20058;-81
2023/01/16 16:09:29;;;;;;;0.68;0.40;;;;;;;;;;4968156;28;20054;-81
2023/01/16 16:12:02;;;;;;;1.10;0.50;;;;;;;;;;5000622;28;20120;-81
2023/01/16 16:20:34;;;;;;;0.73;0.35;;;;;;;;;;5003668;28;20105;-79
2023/01/16 16:23:02;;;;;;;1.52;0.95;;;;;;;;;;4985568;28;20546;-80
2023/01/16 16:25:34;;;;;;;1.95;1.10;;;;;;;;;;4997902;28;20050;-80
2023/01/16 16:28:03;;;;;;;1.45;1.00;;;;;;;;;;5003145;28;20074;-81
2023/01/16 16:30:30;;;;;;;4.25;3.67;;;;;;;;;;4988288;28;20094;-81
2023/01/16 16:32:57;;;;;;;2.47;1.95;;;;;;;;;;4989312;28;20038;-82
2023/01/16 16:35:32;;;;;;;1.05;0.95;;;;;;;;;;4992110;28;20050;-82
2023/01/16 16:37:59;;;;;;;1.40;1.10;;;;;;;;;;4976689;28;20056;-82
2023/01/16 16:40:26;;;;;;;1.35;1.02;;;;;;;;;;4976105;28;20576;-80
2023/01/16 16:42:58;;;;;;;6.20;4.95;;;;;;;;;;4998457;28;20125;-81
2023/01/16 16:45:27;;;;;;;3.72;2.42;;;;;;;;;;4982636;28;20129;-81
2023/01/16 16:48:24;;;;;;;2.38;1.40;;;;;;;;;;4982955;28;20055;-81
2023/01/16 16:51:09;;;;;;;0.80;0.80;;;;;;;;;;4987588;28;20084;-80
2023/01/16 16:53:38;;;;;;;0.77;0.68;;;;;;;;;;4966196;28;20050;-80
2023/01/16 16:56:10;;;;;;;3.97;2.08;;;;;;;;;;4989516;28;20061;-79
2023/01/16 16:58:41;;;;;;;1.55;0.90;;;;;;;;;;4989152;28;20077;-79
2023/01/16 17:01:15;;;;;;;3.33;1.80;;;;;;;;;;4984568;28;20110;-79
2023/01/16 17:03:42;;;;;;;11.48;4.68;;;;;;;;;;4993901;28;20137;-80
2023/01/16 17:06:14;;;;;;;10.93;4.13;;;;;;;;;;4970803;28;20058;-80